Time;durP1;ratioP1;P1;durP2;ratioP2;P2;SDS_P1;SDS_P2;PMS_P1;PMS_P2;Temp;Humidity;BMP_temperature;BMP_pressure;BME280_temperature;BME280_humidity;BME280_pressure;Samples;Min_cycle;Max_cycle;Signal;HPM_P1;HPM_P2
2021/05/04 00:00:29;;;;;;;1.30;1.30;;;;;;;7.55;45.95;100894.75;6237040;28;20189;-72
2021/05/04 00:03:32;;;;;;;1.25;1.25;;;;;;;7.60;46.28;100891.47;6219309;28;20521;-72
2021/05/04 00:06:36;;;;;;;1.70;1.60;;;;;;;7.70;46.60;100878.38;6236947;28;20195;-73
2021/05/04 00:09:39;;;;;;;1.50;1.40;;;;;;;7.63;46.41;100885.66;6238035;28;20217;-73
2021/05/04 00:12:42;;;;;;;1.27;1.27;;;;;;;7.77;46.36;100876.53;6236628;28;20429;-73
2021/05/04 00:15:46;;;;;;;1.80;1.70;;;;;;;7.79;46.32;100879.91;6236547;28;20185;-73
2021/05/04 00:18:49;;;;;;;3.85;1.40;;;;;;;7.61;46.69;100872.25;6237875;28;20216;-73
2021/05/04 00:21:52;;;;;;;1.27;1.23;;;;;;;7.54;47.49;100880.34;6237530;28;20217;-73
2021/05/04 00:24:56;;;;;;;1.33;1.33;;;;;;;7.48;47.23;100872.13;6236365;28;20382;-73
2021/05/04 00:27:59;;;;;;;1.58;1.52;;;;;;;7.51;47.14;100878.03;6237517;28;20185;-73
2021/05/04 00:31:03;;;;;;;1.35;1.30;;;;;;;7.40;48.07;100859.53;6237428;28;20243;-73
2021/05/04 00:34:06;;;;;;;1.45;1.45;;;;;;;7.42;48.41;100868.31;6236401;28;20476;-72
2021/05/04 00:37:10;;;;;;;1.75;1.50;;;;;;;7.66;47.86;100863.50;6237677;28;20185;-73
2021/05/04 00:40:14;;;;;;;1.33;1.15;;;;;;;7.84;47.03;100872.84;6237230;28;20186;-72
2021/05/04 00:43:18;;;;;;;1.27;1.20;;;;;;;7.80;47.88;100877.00;6241550;28;20213;-72
2021/05/04 00:46:22;;;;;;;1.25;1.25;;;;;;;7.97;46.25;100861.22;6242303;28;20232;-72
2021/05/04 00:49:25;;;;;;;2.00;1.30;;;;;;;7.90;46.41;100860.34;6242201;28;20178;-72
2021/05/04 00:52:28;;;;;;;2.00;1.60;;;;;;;7.88;46.86;100857.00;6240851;28;20442;-72
2021/05/04 00:55:33;;;;;;;1.20;1.20;;;;;;;7.94;46.55;100850.75;6224145;28;20208;-73
2021/05/04 00:58:39;;;;;;;7.75;1.50;;;;;;;7.98;46.04;100854.75;6240743;28;20382;-73
2021/05/04 01:01:44;;;;;;;1.60;1.45;;;;;;;7.97;46.21;100850.34;6241717;28;20236;-72
2021/05/04 01:04:47;;;;;;;5.53;1.50;;;;;;;8.07;45.98;100850.81;6240858;28;20532;-72
2021/05/04 01:07:51;;;;;;;1.45;1.35;;;;;;;7.96;46.48;100859.56;6241900;28;20189;-72
2021/05/04 01:10:54;;;;;;;4.32;1.38;;;;;;;8.06;46.23;100843.75;6241346;28;20264;-73
2021/05/04 01:13:57;;;;;;;7.57;1.30;;;;;;;7.83;47.15;100854.03;6241695;28;20248;-73
2021/05/04 01:17:02;;;;;;;1.30;1.30;;;;;;;7.90;46.17;100819.59;6240701;28;20186;-73
2021/05/04 01:20:07;;;;;;;3.70;1.17;;;;;;;8.08;46.37;100852.53;6241163;28;20190;-73
2021/05/04 01:23:13;;;;;;;3.55;1.67;;;;;;;7.99;46.56;100853.69;6241102;28;20217;-73
2021/05/04 01:26:16;;;;;;;1.25;1.25;;;;;;;8.05;46.65;100852.91;6239971;28;20296;-73
2021/05/04 01:29:19;;;;;;;1.40;1.40;;;;;;;8.12;46.34;100848.34;6241170;28;20221;-72
2021/05/04 01:32:22;;;;;;;1.73;1.63;;;;;;;8.06;46.77;100844.53;6240954;28;20197;-73
2021/05/04 01:35:25;;;;;;;1.77;1.30;;;;;;;8.05;47.32;100852.91;6240811;28;20186;-72
2021/05/04 01:38:29;;;;;;;5.97;1.42;;;;;;;7.97;48.28;100861.22;6241188;28;20185;-72
2021/05/04 01:41:32;;;;;;;1.30;1.30;;;;;;;8.06;47.54;100849.16;6239467;28;20531;-73
2021/05/04 01:44:35;;;;;;;2.05;1.20;;;;;;;8.05;47.68;100850.19;6240585;28;20265;-72
2021/05/04 01:47:38;;;;;;;3.33;1.30;;;;;;;7.98;47.57;100846.63;6222798;28;20410;-72
2021/05/04 01:50:42;;;;;;;1.30;1.30;;;;;;;7.86;48.04;100843.59;6240800;28;20186;-72
2021/05/04 01:53:46;;;;;;;3.80;1.17;;;;;;;8.10;47.52;100839.56;6240370;28;20293;-73
2021/05/04 01:56:49;;;;;;;1.35;1.23;;;;;;;8.11;47.66;100835.81;6239153;28;20524;-72
2021/05/04 01:59:52;;;;;;;1.42;1.40;;;;;;;8.00;48.46;100839.09;6240334;28;20185;-72
2021/05/04 02:02:56;;;;;;;5.88;1.40;;;;;;;7.70;50.76;100843.06;6240057;28;20245;-72
2021/05/04 02:05:59;;;;;;;1.23;1.23;;;;;;;7.51;51.75;100834.59;6221746;28;20208;-73
2021/05/04 02:09:03;;;;;;;1.73;1.30;;;;;;;7.42;51.65;100824.91;6239070;28;20405;-73
2021/05/04 02:12:07;;;;;;;1.23;1.23;;;;;;;7.26;52.40;100838.78;6240251;28;20265;-73
2021/05/04 02:15:11;;;;;;;4.63;1.73;;;;;;;7.08;53.39;100838.38;6240036;28;20252;-72
2021/05/04 02:18:15;;;;;;;1.73;1.48;;;;;;;6.90;54.04;100833.44;6239764;28;20185;-73
2021/05/04 02:21:18;;;;;;;2.97;1.30;;;;;;;7.04;53.31;100836.25;6222111;28;20221;-73
2021/05/04 02:24:22;;;;;;;2.40;1.50;;;;;;;7.23;53.06;100825.59;6239316;28;20217;-72
2021/05/04 02:27:26;;;;;;;13.43;1.50;;;;;;;7.18;53.13;100817.19;6239683;28;20186;-72
2021/05/04 02:30:29;;;;;;;1.90;1.40;;;;;;;7.33;52.68;100817.94;6238497;28;20439;-72
2021/05/04 02:33:32;;;;;;;2.03;1.50;;;;;;;7.53;51.62;100799.94;6239358;28;20293;-72
2021/05/04 02:36:35;;;;;;;1.27;1.17;;;;;;;7.75;51.01;100819.72;6239705;28;20196;-72
2021/05/04 02:39:39;;;;;;;1.53;1.30;;;;;;;7.74;51.11;100822.63;6239563;28;20225;-72
2021/05/04 02:42:42;;;;;;;1.33;1.33;;;;;;;7.67;51.45;100813.59;6238588;28;20218;-72
2021/05/04 02:45:45;;;;;;;1.20;1.20;;;;;;;7.71;51.37;100812.16;6238075;28;20412;-72
2021/05/04 02:48:48;;;;;;;1.47;1.47;;;;;;;7.54;52.60;100823.34;6238343;28;20217;-72
2021/05/04 02:51:51;;;;;;;1.70;1.30;;;;;;;7.72;51.88;100824.69;6221008;28;20492;-72
2021/05/04 02:54:55;;;;;;;2.03;1.53;;;;;;;7.66;51.87;100810.03;6239468;28;20186;-73
2021/05/04 02:57:58;;;;;;;2.95;1.60;;;;;;;7.36;52.98;100806.69;6238778;28;20186;-73
2021/05/04 03:01:02;;;;;;;1.42;1.30;;;;;;;7.43;52.94;100815.72;6238483;28;20196;-73
2021/05/04 03:04:06;;;;;;;3.13;1.60;;;;;;;7.65;52.13;100815.69;6237481;28;20523;-73
2021/05/04 03:07:11;;;;;;;1.87;1.77;;;;;;;7.49;52.79;100820.38;6238931;28;20185;-73
2021/05/04 03:10:16;;;;;;;1.50;1.40;;;;;;;7.64;52.50;100800.41;6238858;28;20185;-73
2021/05/04 03:13:32;;;;;;;1.30;1.30;;;;;;;7.51;53.13;100812.88;6237651;28;20193;-74
2021/05/04 03:16:35;;;;;;;1.50;1.20;;;;;;;7.38;53.20;100785.63;6238551;28;20221;-72
2021/05/04 03:19:38;;;;;;;1.20;1.20;;;;;;;7.43;54.01;100804.88;6238841;28;20189;-73
2021/05/04 03:22:42;;;;;;;1.58;1.27;;;;;;;7.44;54.23;100794.84;6238180;28;20252;-73
2021/05/04 03:25:46;;;;;;;1.53;1.50;;;;;;;7.49;54.37;100798.66;6238289;28;20185;-72
2021/05/04 03:28:50;;;;;;;1.60;1.50;;;;;;;7.54;54.70;100790.75;6237439;28;20189;-72
2021/05/04 03:31:53;;;;;;;1.58;1.48;;;;;;;7.27;56.18;100788.88;6238553;28;20256;-73
2021/05/04 03:34:56;;;;;;;2.90;1.60;;;;;;;7.38;56.04;100791.06;6238185;28;20249;-73
2021/05/04 03:38:00;;;;;;;1.23;1.23;;;;;;;7.46;56.58;100796.34;6237194;28;20493;-73
2021/05/04 03:41:05;;;;;;;3.90;1.50;;;;;;;7.47;56.49;100789.03;6238296;28;20189;-73
2021/05/04 03:44:08;;;;;;;1.53;1.47;;;;;;;7.65;56.12;100791.25;6219591;28;20253;-73
2021/05/04 03:47:14;;;;;;;3.22;1.58;;;;;;;7.73;55.93;100782.94;6238289;28;20190;-73
2021/05/04 03:50:22;;;;;;;2.80;1.70;;;;;;;7.72;55.92;100778.53;6237860;28;20224;-73
2021/05/04 03:53:26;;;;;;;7.93;1.93;;;;;;;7.72;56.01;100781.25;6236979;28;20256;-73
2021/05/04 03:56:30;;;;;;;3.43;1.47;;;;;;;7.86;55.61;100777.56;6237813;28;20256;-73
2021/05/04 03:59:33;;;;;;;1.90;1.60;;;;;;;7.87;55.75;100774.66;6220373;28;20265;-73
2021/05/04 04:02:36;;;;;;;3.60;1.70;;;;;;;7.66;56.37;100777.47;6237176;28;20225;-72
2021/05/04 04:05:39;;;;;;;3.77;1.60;;;;;;;7.53;57.04;100783.63;6237949;28;20232;-72
2021/05/04 04:08:43;;;;;;;3.15;1.52;;;;;;;7.39;58.61;100776.47;6219981;28;20201;-73
2021/05/04 04:11:47;;;;;;;1.50;1.50;;;;;;;7.29;59.29;100792.22;6237714;28;20185;-73
2021/05/04 04:14:50;;;;;;;2.00;1.63;;;;;;;7.55;58.42;100789.69;6237047;28;20224;-72
2021/05/04 04:17:53;;;;;;;4.85;1.92;;;;;;;7.58;58.52;100775.75;6241086;28;20186;-73
2021/05/04 04:20:56;;;;;;;1.70;1.60;;;;;;;7.70;58.55;100783.34;6241569;28;20499;-73
2021/05/04 04:23:59;;;;;;;2.22;1.75;;;;;;;7.69;58.79;100776.22;6241904;28;20220;-74
2021/05/04 04:27:04;;;;;;;3.20;1.47;;;;;;;7.57;58.83;100779.47;6242342;28;20186;-73
2021/05/04 04:30:09;;;;;;;1.83;1.67;;;;;;;7.67;58.63;100772.88;6242672;28;20221;-73
2021/05/04 04:33:22;;;;;;;4.07;1.90;;;;;;;7.76;59.16;100772.50;6242729;28;20190;-73
2021/05/04 04:36:25;;;;;;;3.13;1.63;;;;;;;7.72;59.14;100759.53;6242207;28;20186;-73
2021/05/04 04:39:28;;;;;;;4.10;1.73;;;;;;;7.64;59.63;100775.97;6242072;28;20280;-73
2021/05/04 04:42:33;;;;;;;2.97;2.10;;;;;;;7.48;60.36;100742.69;6242217;28;20344;-73
2021/05/04 04:45:36;;;;;;;2.47;2.23;;;;;;;7.65;60.53;100764.09;6241885;28;20299;-73
2021/05/04 04:48:39;;;;;;;15.80;2.50;;;;;;;7.86;59.92;100767.53;6241790;28;20186;-73
2021/05/04 04:51:44;;;;;;;4.43;1.87;;;;;;;7.75;60.80;100764.56;6223644;28;20201;-73
2021/05/04 04:54:47;;;;;;;3.13;2.10;;;;;;;7.88;60.35;100759.22;6240732;28;20542;-73
2021/05/04 04:57:51;;;;;;;6.43;2.17;;;;;;;7.78;60.75;100764.16;6241110;28;20193;-73
2021/05/04 05:00:54;;;;;;;4.63;2.23;;;;;;;7.67;61.79;100768.28;6241622;28;20217;-72
2021/05/04 05:03:57;;;;;;;6.80;2.03;;;;;;;7.56;62.88;100764.25;6223108;28;20237;-73
2021/05/04 05:07:06;;;;;;;8.93;2.20;;;;;;;7.74;61.80;100752.00;6241993;28;20216;-73
2021/05/04 05:10:11;;;;;;;5.68;2.10;;;;;;;7.60;63.02;100763.84;6240460;28;20469;-74
2021/05/04 05:13:15;;;;;;;5.60;2.30;;;;;;;7.79;63.05;100760.41;6240405;28;20403;-73
2021/05/04 05:16:19;;;;;;;4.07;2.07;;;;;;;7.78;64.13;100753.31;6240251;28;20434;-73
2021/05/04 05:19:27;;;;;;;2.08;1.90;;;;;;;7.63;64.78;100760.75;6241304;28;20190;-73
2021/05/04 05:22:30;;;;;;;1.60;1.60;;;;;;;7.81;64.35;100752.88;6240938;28;20220;-72
2021/05/04 05:25:35;;;;;;;1.73;1.63;;;;;;;7.54;64.05;100752.75;6241257;28;20186;-72
2021/05/04 05:28:39;;;;;;;1.60;1.50;;;;;;;7.48;63.88;100742.69;6240650;28;20189;-73
2021/05/04 05:31:43;;;;;;;4.40;2.27;;;;;;;7.90;62.91;100741.66;6239992;28;20192;-72
2021/05/04 05:34:46;;;;;;;4.20;2.10;;;;;;;7.87;62.54;100741.22;6240410;28;20190;-73
2021/05/04 05:37:49;;;;;;;8.05;2.83;;;;;;;7.91;62.40;100742.50;6240694;28;20224;-73
2021/05/04 05:40:52;;;;;;;5.63;2.53;;;;;;;7.98;61.73;100732.50;6240580;28;20194;-73
2021/05/04 05:43:56;;;;;;;7.87;3.53;;;;;;;8.00;61.96;100741.28;6239292;28;20417;-73
2021/05/04 05:47:00;;;;;;;2.00;1.90;;;;;;;7.93;62.64;100726.84;6239624;28;20217;-73
2021/05/04 05:50:05;;;;;;;3.10;1.55;;;;;;;7.84;63.76;100736.19;6240730;28;20185;-73
2021/05/04 05:53:08;;;;;;;1.80;1.70;;;;;;;7.84;63.28;100734.31;6240375;28;20196;-73
2021/05/04 05:56:11;;;;;;;1.90;1.90;;;;;;;8.19;61.58;100718.78;6239723;28;20400;-73
2021/05/04 05:59:16;;;;;;;5.03;3.08;;;;;;;8.32;61.32;100735.16;6240109;28;20192;-73
2021/05/04 06:02:19;;;;;;;11.07;2.45;;;;;;;8.43;61.16;100722.84;6221853;28;20208;-73
2021/05/04 06:05:23;;;;;;;3.50;1.80;;;;;;;8.49;60.73;100719.31;6221784;28;20229;-73
2021/05/04 06:08:27;;;;;;;5.85;2.38;;;;;;;8.47;61.21;100716.81;6240289;28;20186;-73
2021/05/04 06:11:31;;;;;;;3.60;2.10;;;;;;;8.47;61.50;100714.09;6239490;28;20249;-73
2021/05/04 06:14:34;;;;;;;1.95;1.75;;;;;;;8.43;61.98;100704.66;6240320;28;20221;-72
2021/05/04 06:17:38;;;;;;;6.80;2.50;;;;;;;8.52;61.55;100706.16;6238676;28;20406;-72
2021/05/04 06:20:41;;;;;;;6.65;2.00;;;;;;;8.50;61.83;100705.50;6239970;28;20356;-73
2021/05/04 06:23:44;;;;;;;2.25;2.03;;;;;;;8.57;61.95;100703.66;6238985;28;20260;-72
2021/05/04 06:26:47;;;;;;;4.60;2.17;;;;;;;8.79;61.53;100705.13;6239693;28;20249;-73
2021/05/04 06:29:51;;;;;;;5.97;2.25;;;;;;;8.91;61.25;100707.22;6239864;28;20192;-72
2021/05/04 06:32:54;;;;;;;;;;;;;;;9.09;61.50;100696.53;6240143;28;20082;-73
2021/05/04 06:35:58;;;;;;;2.85;2.28;;;;;;;9.17;61.28;100707.19;6239844;28;20097;-73
2021/05/04 06:39:01;;;;;;;2.20;2.00;;;;;;;9.20;61.05;100691.28;6238738;28;20175;-73
2021/05/04 06:42:04;;;;;;;;;;;;;;;9.32;60.64;100689.56;6239715;28;20185;-73
2021/05/04 06:45:10;;;;;;;9.35;2.10;;;;;;;9.57;60.18;100691.63;6238150;28;20097;-73
2021/05/04 06:48:14;;;;;;;2.80;1.77;;;;;;;9.76;60.20;100691.56;6238366;28;20234;-73
2021/05/04 06:51:17;;;;;;;1.70;1.60;;;;;;;9.78;61.64;100681.31;6239508;28;20213;-73
2021/05/04 06:54:20;;;;;;;6.07;2.20;;;;;;;9.71;60.40;100683.19;6238265;28;20476;-73
2021/05/04 06:57:24;;;;;;;6.65;2.10;;;;;;;9.77;60.93;100676.91;6239670;28;20185;-73
2021/05/04 07:00:28;;;;;;;1.88;1.77;;;;;;;9.63;60.95;100686.16;6238358;28;20224;-73
2021/05/04 07:03:32;;;;;;;3.53;2.10;;;;;;;9.70;60.88;100684.25;6238850;28;20237;-73
2021/05/04 07:06:35;;;;;;;2.67;1.92;;;;;;;9.76;60.29;100675.22;6238786;28;20289;-73
2021/05/04 07:09:39;;;;;;;2.05;1.88;;;;;;;9.72;60.72;100679.44;6239213;28;20190;-73
2021/05/04 07:12:42;;;;;;;5.47;2.17;;;;;;;9.94;60.24;100688.97;6239131;28;20212;-72
2021/05/04 07:15:47;;;;;;;6.07;2.42;;;;;;;10.09;59.54;100675.91;6237799;28;20200;-72
2021/05/04 07:18:50;;;;;;;3.70;1.85;;;;;;;10.27;58.45;100677.09;6239003;28;20186;-73
2021/05/04 07:21:53;;;;;;;2.78;1.70;;;;;;;10.42;58.25;100678.47;6238647;28;20186;-72
2021/05/04 07:24:57;;;;;;;2.90;1.90;;;;;;;10.57;58.79;100678.16;6237381;28;20213;-72
2021/05/04 07:28:00;;;;;;;1.88;1.73;;;;;;;10.74;58.48;100668.38;6238821;28;20223;-73
2021/05/04 07:31:07;;;;;;;5.57;1.77;;;;;;;10.59;59.38;100670.59;6237677;28;20411;-73
2021/05/04 07:34:11;;;;;;;1.80;1.70;;;;;;;10.65;58.59;100669.72;6238613;28;20190;-73
2021/05/04 07:37:14;;;;;;;1.88;1.77;;;;;;;10.64;55.35;100662.56;6238111;28;20240;-73
2021/05/04 07:40:17;;;;;;;7.10;1.90;;;;;;;10.70;55.71;100672.59;6238285;28;20280;-72
2021/05/04 07:43:22;;;;;;;3.85;1.90;;;;;;;10.75;55.26;100670.06;6237271;28;20402;-73
2021/05/04 07:46:26;;;;;;;2.83;1.80;;;;;;;10.76;56.10;100671.69;6238669;28;20186;-73
2021/05/04 07:49:33;;;;;;;2.70;2.00;;;;;;;10.97;55.54;100668.59;6218877;28;20208;-73
2021/05/04 07:52:38;;;;;;;9.45;2.08;;;;;;;11.01;55.60;100667.09;6238559;28;20192;-73
2021/05/04 07:55:41;;;;;;;6.13;1.90;;;;;;;10.89;55.80;100655.22;6238295;28;20257;-73
2021/05/04 07:58:44;;;;;;;8.88;2.25;;;;;;;10.95;55.98;100672.59;6238570;28;20185;-73
2021/05/04 08:01:48;;;;;;;2.67;1.67;;;;;;;11.11;54.01;100651.03;6220424;28;20197;-73
2021/05/04 08:04:52;;;;;;;2.67;1.50;;;;;;;11.03;53.60;100651.31;6237545;28;20252;-73
2021/05/04 08:07:55;;;;;;;2.10;1.95;;;;;;;10.94;54.45;100658.13;6238159;28;20189;-73
2021/05/04 08:10:58;;;;;;;1.90;1.90;;;;;;;11.05;53.43;100654.66;6237063;28;20523;-73
2021/05/04 08:14:01;;;;;;;2.75;1.52;;;;;;;11.02;52.86;100657.00;6236782;28;20193;-72
2021/05/04 08:17:11;;;;;;;3.55;1.90;;;;;;;10.83;52.73;100607.00;6237561;28;20192;-72
2021/05/04 08:20:18;;;;;;;1.85;1.75;;;;;;;10.98;51.65;100632.06;6236641;28;20209;-72
2021/05/04 08:23:23;;;;;;;1.95;1.85;;;;;;;10.95;51.70;100648.03;6237567;28;20213;-72
2021/05/04 08:26:27;;;;;;;2.47;2.25;;;;;;;11.01;52.36;100641.69;6236442;28;20373;-73
2021/05/04 08:29:30;;;;;;;6.57;1.80;;;;;;;11.23;51.24;100635.59;6237730;28;20265;-72
2021/05/04 08:32:34;;;;;;;5.55;1.95;;;;;;;11.10;51.84;100627.53;6236597;28;20209;-73
2021/05/04 08:35:37;;;;;;;1.98;1.88;;;;;;;11.11;50.89;100648.31;6237878;28;20221;-73
2021/05/04 08:38:40;;;;;;;1.98;1.70;;;;;;;11.08;51.44;100647.91;6237983;28;20239;-73
2021/05/04 08:41:46;;;;;;;6.07;1.92;;;;;;;11.24;50.36;100637.25;6237363;28;20193;-73
2021/05/04 08:44:52;;;;;;;12.10;1.92;;;;;;;11.33;50.45;100635.88;6236221;28;20263;-72
2021/05/04 08:47:56;;;;;;;4.95;1.63;;;;;;;11.25;49.67;100635.34;6237210;28;20224;-73
2021/05/04 08:51:00;;;;;;;1.50;1.40;;;;;;;11.29;49.63;100633.84;6237155;28;20192;-72
2021/05/04 08:54:23;;;;;;;2.75;1.70;;;;;;;11.44;48.99;100636.19;6236029;28;20440;-72
2021/05/04 08:57:26;;;;;;;3.00;1.77;;;;;;;11.52;49.45;100633.16;6236013;28;20476;-72
2021/05/04 09:00:29;;;;;;;15.88;1.90;;;;;;;11.26;47.43;100629.66;6236794;28;20196;-72
2021/05/04 09:03:36;;;;;;;9.05;1.70;;;;;;;11.16;48.01;100629.38;6238747;28;20233;-73
2021/05/04 09:06:43;;;;;;;2.38;1.70;;;;;;;11.20;48.05;100581.41;6241840;28;20192;-73
2021/05/04 09:10:16;;;;;;;3.08;1.85;;;;;;;11.38;47.78;100626.16;6241484;28;20186;-72
2021/05/04 09:13:25;;;;;;;4.22;1.95;;;;;;;11.30;45.72;100621.84;6240299;28;20229;-73
2021/05/04 09:16:33;;;;;;;4.78;1.70;;;;;;;10.90;45.81;100601.47;6241261;28;20272;-73
2021/05/04 09:19:57;;;;;;;1.63;1.58;;;;;;;11.40;44.28;100615.88;6241066;28;20186;-73
2021/05/04 09:23:06;;;;;;;3.70;1.45;;;;;;;11.18;43.75;100615.47;6240456;28;20217;-73
2021/05/04 09:26:17;;;;;;;5.90;1.60;;;;;;;11.34;44.18;100614.88;6239928;28;20186;-72
2021/05/04 09:29:20;;;;;;;10.05;1.83;;;;;;;11.28;44.73;100589.31;6240730;28;20232;-73
2021/05/04 09:32:27;;;;;;;1.80;1.52;;;;;;;11.27;43.17;100614.13;6241030;28;20224;-73
2021/05/04 09:35:31;;;;;;;9.00;2.28;;;;;;;11.41;44.38;100612.06;6239845;28;20213;-73
2021/05/04 09:38:44;;;;;;;1.75;1.45;;;;;;;11.37;43.66;100598.03;6241062;28;20186;-72
2021/05/04 09:41:47;;;;;;;10.38;1.85;;;;;;;11.42;44.31;100621.94;6232675;28;20185;-74
2021/05/04 09:44:52;;;;;;;5.35;1.50;;;;;;;11.57;44.34;100614.19;6240687;28;20209;-74
2021/05/04 09:48:23;;;;;;;4.28;1.60;;;;;;;11.46;42.75;100617.69;6240817;28;20193;-73
2021/05/04 09:51:27;;;;;;;3.30;1.55;;;;;;;11.31;42.38;100604.41;6216989;28;20201;-72
2021/05/04 09:54:31;;;;;;;9.82;1.55;;;;;;;11.31;41.48;100609.88;6239107;28;20417;-73
2021/05/04 09:57:36;;;;;;;3.58;1.70;;;;;;;11.25;41.76;100595.22;6240211;28;20192;-74
2021/05/04 10:00:40;;;;;;;4.57;1.80;;;;;;;11.33;42.08;100594.91;6221487;28;20202;-73
2021/05/04 10:03:44;;;;;;;1.73;1.65;;;;;;;11.40;41.93;100596.75;6239769;28;20233;-73
2021/05/04 10:06:48;;;;;;;1.63;1.52;;;;;;;11.42;41.63;100597.34;6239799;28;20192;-74
2021/05/04 10:09:54;;;;;;;2.22;1.88;;;;;;;11.36;42.08;100596.34;6238666;28;20359;-73
2021/05/04 10:13:00;;;;;;;6.55;2.58;;;;;;;11.55;42.13;100589.00;6239631;28;20224;-73
2021/05/04 10:16:06;;;;;;;8.25;2.00;;;;;;;11.72;41.87;100595.53;6238823;28;20202;-72
2021/05/04 10:19:10;;;;;;;3.50;1.40;;;;;;;11.29;42.31;100585.53;6238562;28;20472;-73
2021/05/04 10:22:14;;;;;;;7.70;2.70;;;;;;;11.40;42.52;100586.63;6238761;28;20403;-73
2021/05/04 10:25:21;;;;;;;7.40;1.50;;;;;;;11.37;42.72;100592.56;6239326;28;20217;-73
2021/05/04 10:28:29;;;;;;;1.90;1.77;;;;;;;11.55;43.27;100578.06;6239565;28;20186;-73
2021/05/04 10:31:34;;;;;;;7.97;1.30;;;;;;;11.45;43.51;100583.25;6239678;28;20185;-73
2021/05/04 10:34:37;;;;;;;5.22;2.00;;;;;;;11.50;43.95;100580.66;6238539;28;20456;-72
2021/05/04 10:37:55;;;;;;;4.43;1.70;;;;;;;11.56;44.10;100586.03;6238784;28;20193;-75
2021/05/04 10:41:01;;;;;;;4.82;2.28;;;;;;;11.52;44.47;100584.00;6238238;28;20358;-72
2021/05/04 10:44:07;;;;;;;1.65;1.63;;;;;;;11.54;45.43;100576.38;6238927;28;20213;-73
2021/05/04 10:47:11;;;;;;;4.05;1.60;;;;;;;11.53;46.14;100570.09;6238339;28;20186;-73
2021/05/04 10:50:16;;;;;;;6.88;1.70;;;;;;;11.68;46.25;100566.97;6237986;28;20276;-72
2021/05/04 10:54:01;;;;;;;3.50;1.85;;;;;;;11.59;47.21;100557.41;6238928;28;20217;-73
2021/05/04 10:57:05;;;;;;;1.73;1.73;;;;;;;11.44;47.59;100557.81;6238871;28;20186;-72
2021/05/04 11:00:10;;;;;;;1.48;1.48;;;;;;;11.61;48.36;100571.66;6240384;28;20185;-72
2021/05/04 11:03:44;;;;;;;8.02;1.80;;;;;;;11.66;48.11;100566.34;6239015;28;20277;-74
2021/05/04 11:06:48;;;;;;;3.38;1.80;;;;;;;11.39;48.76;100534.97;6238213;28;20192;-73
2021/05/04 11:10:11;;;;;;;5.78;1.73;;;;;;;11.32;49.31;100552.28;6238877;28;20186;-74
2021/05/04 11:13:49;;;;;;;2.75;1.83;;;;;;;11.56;49.39;100546.94;6221262;28;20208;-73
2021/05/04 11:17:12;;;;;;;2.25;1.55;;;;;;;11.57;49.93;100537.69;6237725;28;20186;-73
2021/05/04 11:20:35;;;;;;;6.90;1.70;;;;;;;11.47;50.75;100538.25;6238468;28;20192;-73
2021/05/04 11:24:01;;;;;;;1.77;1.77;;;;;;;11.56;51.24;100538.72;6238314;28;20186;-73
2021/05/04 11:27:26;;;;;;;8.57;1.92;;;;;;;11.63;51.16;100528.56;6238307;28;20185;-72
2021/05/04 11:30:35;;;;;;;6.10;1.92;;;;;;;11.66;51.65;100514.44;6238237;28;20200;-73
2021/05/04 11:33:39;;;;;;;7.78;1.85;;;;;;;11.74;51.92;100527.78;6237239;28;20197;-75
2021/05/04 11:36:43;;;;;;;5.20;1.90;;;;;;;11.78;52.08;100529.03;6237283;28;20209;-72
2021/05/04 11:39:53;;;;;;;3.67;2.00;;;;;;;11.91;52.15;100528.84;6238574;28;20225;-73
2021/05/04 11:43:00;;;;;;;3.40;1.85;;;;;;;11.76;52.92;100525.69;6236207;28;20308;-73
2021/05/04 11:46:04;;;;;;;5.53;1.98;;;;;;;11.99;52.50;100528.50;6237877;28;20215;-73
2021/05/04 11:49:07;;;;;;;6.47;2.17;;;;;;;11.81;53.07;100523.09;6238075;28;20221;-74
2021/05/04 11:52:13;;;;;;;8.85;2.05;;;;;;;11.75;53.55;100513.09;6237845;28;20186;-72
2021/05/04 11:55:22;;;;;;;3.08;1.80;;;;;;;11.89;53.90;100515.38;6237920;28;20198;-74
2021/05/04 11:58:28;;;;;;;7.78;2.00;;;;;;;11.76;53.97;100509.28;6238064;28;20186;-73
2021/05/04 12:01:41;;;;;;;14.30;2.25;;;;;;;11.61;54.88;100508.81;6238402;28;20208;-72
2021/05/04 12:04:49;;;;;;;7.65;2.38;;;;;;;11.60;55.18;100509.91;6236843;28;20245;-72
2021/05/04 12:07:52;;;;;;;3.70;1.95;;;;;;;11.55;55.27;100507.03;6237615;28;20185;-72
2021/05/04 12:10:56;;;;;;;2.10;2.10;;;;;;;11.53;55.40;100509.97;6236688;28;20185;-72
2021/05/04 12:14:21;;;;;;;2.83;2.00;;;;;;;11.68;55.26;100496.78;6236556;28;20193;-71
2021/05/04 12:17:26;;;;;;;6.18;2.35;;;;;;;11.56;56.22;100486.81;6236610;28;20193;-72
2021/05/04 12:20:32;;;;;;;5.63;2.50;;;;;;;11.54;56.43;100495.28;6237905;28;20185;-72
2021/05/04 12:23:37;;;;;;;5.55;2.35;;;;;;;11.52;56.65;100486.47;6236792;28;20244;-73
2021/05/04 12:26:40;;;;;;;9.98;2.67;;;;;;;11.35;57.45;100490.09;6237607;28;20283;-74
2021/05/04 12:29:44;;;;;;;3.78;2.30;;;;;;;11.32;57.85;100481.25;6237258;28;20185;-73
2021/05/04 12:32:47;;;;;;;2.67;2.30;;;;;;;11.26;58.49;100482.19;6236188;28;20217;-74
2021/05/04 12:35:56;;;;;;;2.97;2.25;;;;;;;11.16;58.49;100481.91;6236808;28;20260;-73
2021/05/04 12:39:02;;;;;;;2.15;2.10;;;;;;;11.15;58.37;100480.22;6240812;28;20185;-73
2021/05/04 12:42:21;;;;;;;2.20;2.20;;;;;;;11.05;58.86;100479.94;6242096;28;20217;-73
2021/05/04 12:45:26;;;;;;;2.28;2.17;;;;;;;11.13;58.85;100482.38;6241169;28;20394;-74
2021/05/04 12:48:29;;;;;;;2.90;2.70;;;;;;;10.88;59.10;100475.31;6242525;28;20224;-72
2021/05/04 12:51:34;;;;;;;2.58;2.42;;;;;;;10.80;59.50;100451.06;6242182;28;20228;-73
2021/05/04 12:54:39;;;;;;;2.40;2.30;;;;;;;10.91;59.88;100478.44;6241409;28;20196;-73
2021/05/04 12:57:42;;;;;;;2.58;2.47;;;;;;;10.79;60.26;100474.78;6241750;28;20196;-73
2021/05/04 13:01:04;;;;;;;3.72;2.60;;;;;;;10.78;60.30;100484.06;6241097;28;20224;-73
2021/05/04 13:04:14;;;;;;;3.72;2.55;;;;;;;10.73;60.34;100463.97;6241491;28;20248;-73
2021/05/04 13:07:24;;;;;;;3.78;2.40;;;;;;;10.79;60.42;100463.88;6241447;28;20186;-73
2021/05/04 13:10:34;;;;;;;2.70;2.50;;;;;;;10.84;60.71;100471.38;6241764;28;20206;-73
2021/05/04 13:13:54;;;;;;;2.58;2.38;;;;;;;11.04;60.17;100467.34;6241619;28;20189;-73
2021/05/04 13:30:31;;;;;;;2.20;2.20;;;;;;;10.61;60.89;100466.59;6241410;28;20186;-74
2021/05/04 13:33:38;;;;;;;2.13;2.10;;;;;;;10.70;61.11;100470.69;6240461;28;20185;-74
2021/05/04 13:36:41;;;;;;;2.78;2.50;;;;;;;10.73;61.36;100459.34;6240024;28;20442;-73
2021/05/04 13:49:49;;;;;;;3.90;2.30;;;;;;;10.13;63.84;100462.88;6239240;28;20185;-73
2021/05/04 13:52:52;;;;;;;4.55;2.50;;;;;;;10.30;63.46;100458.50;6240592;28;20192;-73
2021/05/04 13:56:11;;;;;;;10.15;2.50;;;;;;;10.02;64.28;100451.59;6239070;28;20198;-73
2021/05/04 13:59:14;;;;;;;2.30;2.30;;;;;;;10.00;64.98;100461.91;6239124;28;20348;-73
2021/05/04 14:02:26;;;;;;;2.40;2.30;;;;;;;10.04;64.91;100463.13;6239209;28;20489;-72
2021/05/04 14:05:48;;;;;;;2.78;2.65;;;;;;;9.79;65.73;100461.44;6239290;28;20241;-72
2021/05/04 14:26:21;;;;;;;3.45;3.10;;;;;;;9.81;65.51;100453.91;6215362;28;20292;-72
2021/05/04 14:29:24;;;;;;;3.40;3.28;;;;;;;9.83;65.98;100441.72;6238496;28;20185;-74
2021/05/04 14:32:28;;;;;;;3.95;3.20;;;;;;;9.96;65.12;100457.94;6239555;28;20219;-73
2021/05/04 14:35:34;;;;;;;8.32;3.92;;;;;;;9.99;65.06;100441.13;6238386;28;20560;-73
2021/05/04 14:38:43;;;;;;;4.25;3.15;;;;;;;9.97;65.37;100443.25;6239723;28;20192;-73
2021/05/04 14:45:47;;;;;;;3.55;3.35;;;;;;;10.10;64.70;100436.84;6226573;28;20463;-73
2021/05/04 14:55:50;;;;;;;4.15;3.65;;;;;;;9.47;66.08;100411.59;6237608;28;20244;-72
2021/05/04 14:58:59;;;;;;;3.97;3.65;;;;;;;9.59;67.15;100428.91;6238115;28;20217;-73
2021/05/04 15:02:02;;;;;;;5.68;4.18;;;;;;;9.67;66.89;100415.00;6237880;28;20233;-73
2021/05/04 15:05:08;;;;;;;4.45;4.10;;;;;;;9.69;66.98;100423.78;6238273;28;20268;-74
2021/05/04 15:08:16;;;;;;;4.78;4.43;;;;;;;9.50;68.34;100408.41;6238432;28;20192;-74
2021/05/04 15:11:20;;;;;;;3.63;3.58;;;;;;;9.60;67.67;100422.41;6238218;28;20185;-74
2021/05/04 15:14:37;;;;;;;3.85;3.60;;;;;;;9.31;68.49;100404.78;6238314;28;20240;-73
2021/05/04 15:17:44;;;;;;;3.33;3.22;;;;;;;9.24;69.42;100404.00;6238178;28;20186;-73
2021/05/04 15:21:14;;;;;;;5.05;3.58;;;;;;;9.28;68.96;100396.22;6238638;28;20249;-73